createdAt,value
2022-10-07T00:00:46.204Z,97023.06
2022-10-07T00:02:48.982Z,97025.25
2022-10-07T00:04:53.126Z,97010.81
2022-10-07T00:06:56.030Z,97014.84
2022-10-07T00:08:59.736Z,96933.50
2022-10-07T00:11:06.773Z,97010.56
2022-10-07T00:13:11.928Z,97016.00
2022-10-07T00:15:15.244Z,97011.22
2022-10-07T00:17:18.145Z,96897.50
2022-10-07T00:19:20.811Z,97014.84
2022-10-07T00:21:26.942Z,97013.63
2022-10-07T00:23:29.626Z,97017.81
2022-10-07T00:25:32.427Z,97012.00
2022-10-07T00:27:35.077Z,97012.13
2022-10-07T00:29:37.939Z,97018.50
2022-10-07T00:31:41.833Z,97011.25
2022-10-07T00:33:45.530Z,97009.78
2022-10-07T00:35:50.525Z,97010.19
2022-10-07T00:37:54.663Z,97000.13
2022-10-07T00:39:57.447Z,96999.28
2022-10-07T00:42:00.151Z,97002.50
2022-10-07T00:44:41.612Z,96988.72
2022-10-07T00:46:44.353Z,96989.22
2022-10-07T00:48:47.659Z,96981.28
2022-10-07T00:50:53.312Z,96753.75
2022-10-07T00:53:00.705Z,96976.94
2022-10-07T00:55:08.695Z,96973.56
2022-10-07T00:57:12.031Z,96972.31
2022-10-07T00:59:16.675Z,96844.66
2022-10-07T01:01:20.540Z,96907.63
2022-10-07T01:03:24.273Z,96962.59
2022-10-07T01:05:27.159Z,96959.69
2022-10-07T01:07:30.326Z,96957.97
2022-10-07T01:09:34.620Z,96963.69
2022-10-07T01:11:50.250Z,96953.88
2022-10-07T01:14:04.423Z,96966.16
2022-10-07T01:16:16.525Z,96884.25
2022-10-07T01:18:25.039Z,96946.03
2022-10-07T01:20:35.782Z,96951.25
2022-10-07T01:22:47.785Z,96938.22
2022-10-07T01:25:04.314Z,96941.06
2022-10-07T01:27:11.693Z,96939.25
2022-10-07T01:29:18.699Z,96936.25
2022-10-07T01:31:26.385Z,96866.59
2022-10-07T01:33:32.561Z,96931.53
2022-10-07T01:35:38.743Z,96938.50
2022-10-07T01:37:48.500Z,96931.53
2022-10-07T01:39:54.947Z,96931.69
2022-10-07T01:41:58.853Z,96921.38
2022-10-07T01:44:03.985Z,96926.63
2022-10-07T01:46:09.845Z,96845.66
2022-10-07T01:48:12.787Z,96925.13
2022-10-07T01:50:17.422Z,96914.25
2022-10-07T01:52:43.143Z,96730.97
2022-10-07T01:55:03.072Z,96912.53
2022-10-07T01:57:18.310Z,96919.38
2022-10-07T01:59:59.149Z,96896.81
2022-10-07T02:02:09.797Z,96917.78
2022-10-07T02:04:31.128Z,96909.53
2022-10-07T02:06:42.409Z,96916.47
2022-10-07T02:08:50.464Z,96915.47
2022-10-07T02:11:05.262Z,96912.22
2022-10-07T02:13:14.533Z,96910.34
2022-10-07T02:15:24.767Z,96905.03
2022-10-07T02:17:32.130Z,96906.19
2022-10-07T02:19:39.311Z,96899.47
2022-10-07T02:21:44.535Z,96908.53
2022-10-07T02:23:50.425Z,96907.00
2022-10-07T02:25:55.490Z,96899.38
2022-10-07T02:28:03.375Z,96902.50
2022-10-07T02:30:11.391Z,96903.53
2022-10-07T02:32:20.747Z,96895.13
2022-10-07T02:34:26.162Z,96900.41
2022-10-07T02:36:32.903Z,96885.03
2022-10-07T02:38:38.166Z,96888.72
2022-10-07T02:40:45.828Z,96910.38
2022-10-07T02:42:56.809Z,96881.78
2022-10-07T02:45:06.313Z,96875.25
2022-10-07T02:47:16.560Z,96873.03
2022-10-07T02:49:24.108Z,96862.00
2022-10-07T02:51:31.906Z,96858.03
2022-10-07T02:53:36.857Z,96871.66
2022-10-07T02:55:39.929Z,96862.97
2022-10-07T02:57:47.228Z,96863.53
2022-10-07T02:59:52.530Z,96882.28
2022-10-07T03:02:01.728Z,96871.06
2022-10-07T03:04:05.885Z,96864.94
2022-10-07T03:06:12.737Z,96865.44
2022-10-07T03:08:15.979Z,96863.47
2022-10-07T03:10:19.665Z,96868.22
2022-10-07T03:12:22.742Z,96875.91
2022-10-07T03:14:25.688Z,96871.81
2022-10-07T03:16:28.473Z,96573.13
2022-10-07T03:18:31.287Z,96673.59
2022-10-07T03:20:44.404Z,96863.47
2022-10-07T03:22:48.603Z,96623.91
2022-10-07T03:24:54.630Z,96860.28
2022-10-07T03:26:57.569Z,96864.19
2022-10-07T03:29:01.159Z,96859.84
2022-10-07T03:31:06.360Z,96853.16
2022-10-07T03:33:10.048Z,96853.22
2022-10-07T03:35:14.123Z,96853.31
2022-10-07T03:37:17.313Z,96857.06
2022-10-07T03:39:21.805Z,96856.16
2022-10-07T03:41:24.539Z,96853.47
2022-10-07T03:43:30.727Z,96854.06
2022-10-07T03:45:35.207Z,96853.16
2022-10-07T03:47:38.216Z,96860.53
2022-10-07T03:49:42.185Z,96844.97
2022-10-07T03:51:46.013Z,96847.59
2022-10-07T03:53:49.046Z,96848.50
2022-10-07T03:55:54.230Z,96687.56
2022-10-07T03:57:59.706Z,96846.38
2022-10-07T04:00:04.994Z,96839.09
2022-10-07T04:02:17.415Z,96843.03
2022-10-07T04:04:20.597Z,96838.69
2022-10-07T04:06:24.152Z,96763.00
2022-10-07T04:08:28.322Z,96845.31
2022-10-07T04:10:33.029Z,96845.44
2022-10-07T04:12:37.383Z,96848.22
2022-10-07T04:14:40.267Z,96837.44
2022-10-07T04:16:43.443Z,96832.41
2022-10-07T04:18:48.434Z,96787.78
2022-10-07T04:20:51.478Z,96829.59
2022-10-07T04:22:54.242Z,96585.31
2022-10-07T04:25:14.939Z,96823.34
2022-10-07T04:27:39.774Z,96816.34
2022-10-07T04:29:41.931Z,96810.81
2022-10-07T04:31:44.899Z,96801.16
2022-10-07T04:33:47.729Z,96806.06
2022-10-07T04:35:56.446Z,96795.56
2022-10-07T04:37:59.986Z,96805.56
2022-10-07T04:40:04.661Z,96800.72
2022-10-07T04:42:29.538Z,96795.41
2022-10-07T04:44:32.255Z,96805.56
2022-10-07T04:46:42.179Z,96671.16
2022-10-07T04:48:48.382Z,96738.31
2022-10-07T04:50:54.881Z,96572.34
2022-10-07T04:52:58.948Z,96791.16
2022-10-07T04:55:06.861Z,96792.00
2022-10-07T04:57:13.398Z,96792.63
2022-10-07T04:59:16.879Z,96795.44
2022-10-07T05:01:20.220Z,96785.59
2022-10-07T05:03:27.175Z,96792.13
2022-10-07T05:05:30.066Z,96788.22
2022-10-07T05:07:33.045Z,96786.59
2022-10-07T05:09:36.461Z,96793.28
2022-10-07T05:11:39.175Z,96787.19
2022-10-07T05:13:47.410Z,96785.19
2022-10-07T05:15:52.019Z,96616.91
2022-10-07T05:17:55.886Z,96798.31
2022-10-07T05:20:02.043Z,96786.53
2022-10-07T05:22:04.881Z,96785.56
2022-10-07T05:24:07.732Z,96777.09
2022-10-07T05:26:13.796Z,96686.19
2022-10-07T05:28:19.851Z,96776.59
2022-10-07T05:30:23.134Z,96572.88
2022-10-07T05:32:26.510Z,96769.19
2022-10-07T05:34:29.436Z,96786.03
2022-10-07T05:36:33.483Z,96562.84
2022-10-07T05:38:37.823Z,96283.44
2022-10-07T05:40:40.830Z,96774.59
2022-10-07T05:42:43.566Z,96782.53
2022-10-07T05:44:46.338Z,96781.22
2022-10-07T05:46:50.006Z,96782.16
2022-10-07T05:48:55.453Z,96719.59
2022-10-07T05:51:02.443Z,96771.44
2022-10-07T05:53:08.456Z,96776.47
2022-10-07T05:55:11.917Z,96695.56
2022-10-07T05:57:14.765Z,96774.00
2022-10-07T05:59:17.483Z,96780.81
2022-10-07T06:01:23.918Z,96771.84
2022-10-07T06:03:27.902Z,96716.31
2022-10-07T06:05:32.967Z,96768.44
2022-10-07T06:07:35.715Z,96691.06
2022-10-07T06:09:58.874Z,96766.81
2022-10-07T06:12:19.500Z,96766.88
2022-10-07T06:14:23.851Z,96773.91
2022-10-07T06:16:27.209Z,96775.78
2022-10-07T06:18:30.606Z,96772.84
2022-10-07T06:20:33.333Z,96768.56
2022-10-07T06:22:36.295Z,96768.94
2022-10-07T06:24:41.947Z,96769.25
2022-10-07T06:26:44.840Z,96717.94
2022-10-07T06:28:48.028Z,96765.88
2022-10-07T06:30:52.497Z,96765.56
2022-10-07T06:32:56.393Z,96772.81
2022-10-07T06:34:59.277Z,96767.84
2022-10-07T06:37:02.779Z,96772.22
2022-10-07T06:39:06.344Z,96773.34
2022-10-07T06:41:16.149Z,96773.97
2022-10-07T06:43:20.049Z,96768.56
2022-10-07T06:45:31.539Z,96768.38
2022-10-07T06:47:35.069Z,96773.91
2022-10-07T06:49:38.748Z,96775.78
2022-10-07T06:51:41.523Z,96769.53
2022-10-07T06:53:45.286Z,96770.50
2022-10-07T06:55:51.507Z,96762.78
2022-10-07T06:57:58.341Z,96768.88
2022-10-07T07:00:01.623Z,96764.38
2022-10-07T07:02:07.010Z,96764.19
2022-10-07T07:04:10.412Z,96768.34
2022-10-07T07:06:13.818Z,96768.44
2022-10-07T07:08:17.329Z,96771.47
2022-10-07T07:10:20.190Z,96767.44
2022-10-07T07:12:26.737Z,96768.69
2022-10-07T07:14:34.896Z,96770.94
2022-10-07T07:16:45.970Z,96762.91
2022-10-07T07:18:51.955Z,96777.06
2022-10-07T07:20:54.781Z,96766.78
2022-10-07T07:22:57.771Z,96754.81
2022-10-07T07:25:00.600Z,96774.94
2022-10-07T07:27:03.690Z,96764.75
2022-10-07T07:29:07.901Z,96767.75
2022-10-07T07:31:18.439Z,96764.22
2022-10-07T07:33:21.291Z,96767.50
2022-10-07T07:35:25.348Z,96770.25
2022-10-07T07:37:29.591Z,96693.66
2022-10-07T07:39:32.983Z,96775.19
2022-10-07T07:41:46.817Z,96728.47
2022-10-07T07:43:52.755Z,96768.16
2022-10-07T07:45:59.213Z,96769.78
2022-10-07T07:48:03.563Z,96770.59
2022-10-07T07:50:09.792Z,96768.19
2022-10-07T07:52:12.483Z,96759.53
2022-10-07T07:54:20.565Z,96762.78
2022-10-07T07:56:25.243Z,96673.94
2022-10-07T07:58:28.470Z,96765.25
2022-10-07T08:00:32.914Z,96767.16
2022-10-07T08:02:40.040Z,96765.28
2022-10-07T08:04:47.940Z,96722.94
2022-10-07T08:06:51.546Z,96713.75
2022-10-07T08:08:57.364Z,96757.28
2022-10-07T08:11:07.982Z,96764.13
2022-10-07T08:13:10.945Z,96759.78
2022-10-07T08:15:15.093Z,96753.28
2022-10-07T08:17:18.769Z,96750.34
2022-10-07T08:19:21.936Z,96755.81
2022-10-07T08:21:30.300Z,96758.84
2022-10-07T08:23:35.130Z,96758.56
2022-10-07T08:25:37.903Z,96747.19
2022-10-07T08:27:43.922Z,96761.50
2022-10-07T08:29:48.379Z,96760.47
2022-10-07T08:31:51.443Z,96782.13
2022-10-07T08:33:56.450Z,96699.91
2022-10-07T08:36:00.510Z,96750.41
2022-10-07T08:38:05.616Z,96743.31
2022-10-07T08:40:18.354Z,96751.69
2022-10-07T08:42:31.346Z,96739.78
2022-10-07T08:44:39.577Z,96735.63
2022-10-07T08:46:56.561Z,96736.69
2022-10-07T08:49:04.703Z,96740.97
2022-10-07T08:51:20.140Z,96733.31
2022-10-07T08:53:29.682Z,96666.59
2022-10-07T08:55:37.478Z,96735.44
2022-10-07T08:57:50.825Z,96741.66
2022-10-07T08:59:58.096Z,96731.63
2022-10-07T09:02:15.585Z,96731.44
2022-10-07T09:04:33.087Z,96728.72
2022-10-07T09:06:39.812Z,96729.47
2022-10-07T09:08:47.113Z,96726.41
2022-10-07T09:10:53.423Z,96747.94
2022-10-07T09:13:00.420Z,96723.66
2022-10-07T09:15:06.799Z,96598.78
2022-10-07T09:17:15.261Z,96724.28
2022-10-07T09:19:23.467Z,96713.09
2022-10-07T09:21:35.010Z,96708.78
2022-10-07T09:23:37.995Z,96706.16
2022-10-07T09:25:43.608Z,96717.94
2022-10-07T09:27:46.530Z,96707.19
2022-10-07T09:29:50.038Z,96709.75
2022-10-07T09:31:53.627Z,96471.97
2022-10-07T09:33:56.536Z,96699.84
2022-10-07T09:36:07.055Z,96706.47
2022-10-07T09:38:09.959Z,96702.91
2022-10-07T09:40:24.094Z,96693.88
2022-10-07T09:42:35.351Z,96694.88
2022-10-07T09:44:40.069Z,96608.81
2022-10-07T09:46:47.410Z,96692.25
2022-10-07T09:48:53.861Z,96686.44
2022-10-07T09:51:15.400Z,96602.22
2022-10-07T09:53:21.142Z,96656.00
2022-10-07T09:55:37.284Z,96688.97
2022-10-07T09:57:41.661Z,96691.75
2022-10-07T09:59:44.471Z,96684.44
2022-10-07T10:01:54.519Z,96687.81
2022-10-07T10:04:00.263Z,96688.38
2022-10-07T10:06:05.496Z,96695.66
2022-10-07T10:08:23.063Z,96683.81
2022-10-07T10:10:28.393Z,96683.50
2022-10-07T10:12:33.506Z,96696.13
2022-10-07T10:14:45.535Z,96680.88
2022-10-07T10:16:48.205Z,96687.81
2022-10-07T10:18:55.564Z,96675.75
2022-10-07T10:21:14.954Z,96677.47
2022-10-07T10:23:28.600Z,96680.25
2022-10-07T10:26:00.278Z,96670.47
2022-10-07T10:28:08.432Z,96670.84
2022-10-07T10:30:20.033Z,96667.38
2022-10-07T10:32:48.712Z,96661.34
2022-10-07T10:34:58.460Z,96662.72
2022-10-07T10:37:05.864Z,96691.94
2022-10-07T10:39:25.233Z,96664.47
2022-10-07T10:41:37.076Z,96547.16
2022-10-07T10:43:56.635Z,96425.38
2022-10-07T10:46:25.697Z,96652.59
2022-10-07T10:48:37.982Z,96529.28
2022-10-07T10:50:53.295Z,96648.78
2022-10-07T10:53:07.489Z,96650.84
2022-10-07T10:55:33.190Z,96652.09
2022-10-07T10:57:45.210Z,96644.63
2022-10-07T11:00:06.920Z,96642.28
2022-10-07T11:02:32.523Z,96647.41
2022-10-07T11:04:46.210Z,96411.91
2022-10-07T11:06:54.162Z,96584.53
2022-10-07T11:08:59.892Z,96633.06
2022-10-07T11:11:07.253Z,96589.56
2022-10-07T11:13:24.744Z,96632.53
2022-10-07T11:15:32.950Z,96628.84
2022-10-07T11:17:37.778Z,96629.03
2022-10-07T11:19:49.587Z,96619.63
2022-10-07T11:21:54.129Z,96586.19
2022-10-07T11:24:02.708Z,96611.84
2022-10-07T11:26:15.237Z,96607.66
2022-10-07T11:28:22.610Z,96604.78
2022-10-07T11:30:38.542Z,96604.53
2022-10-07T11:32:48.501Z,96614.63
2022-10-07T11:34:56.221Z,96607.84
2022-10-07T11:37:06.010Z,96593.28
2022-10-07T11:39:09.875Z,96594.97
2022-10-07T11:41:20.344Z,96567.13
2022-10-07T11:43:27.285Z,96598.94
2022-10-07T11:45:33.906Z,96593.94
2022-10-07T11:47:40.939Z,96589.00
2022-10-07T11:49:55.847Z,96588.91
2022-10-07T11:52:03.640Z,96589.13
2022-10-07T11:54:09.265Z,96578.69
2022-10-07T11:56:20.407Z,96090.50
2022-10-07T11:58:26.534Z,96515.03
2022-10-07T12:00:32.418Z,96574.75
2022-10-07T12:02:45.432Z,96566.13
2022-10-07T12:04:49.811Z,96525.75
2022-10-07T12:07:30.444Z,96553.06
2022-10-07T12:09:54.605Z,96552.34
2022-10-07T12:11:57.837Z,96556.28
2022-10-07T12:14:31.639Z,96550.91
2022-10-07T12:16:55.403Z,96539.59
2022-10-07T12:19:16.028Z,96545.63
2022-10-07T12:21:18.805Z,96545.63
2022-10-07T12:23:40.954Z,96536.94
2022-10-07T12:25:59.507Z,96546.34
2022-10-07T12:28:02.386Z,96537.31
2022-10-07T12:30:27.317Z,96536.16
2022-10-07T12:32:48.518Z,96528.44
2022-10-07T12:34:51.520Z,96524.16
2022-10-07T12:36:54.353Z,96532.63
2022-10-07T12:39:35.151Z,96520.44
2022-10-07T12:41:46.310Z,96520.38
2022-10-07T12:44:01.091Z,96518.81
2022-10-07T12:46:10.214Z,96511.38
2022-10-07T12:48:20.382Z,96436.84
2022-10-07T12:50:25.380Z,96503.00
2022-10-07T12:52:42.593Z,96505.34
2022-10-07T12:54:51.580Z,96495.19
2022-10-07T12:56:54.590Z,96494.88
2022-10-07T12:59:28.023Z,96448.88
2022-10-07T13:01:47.551Z,96407.41
2022-10-07T13:04:13.796Z,96469.44
2022-10-07T13:07:10.654Z,96477.19
2022-10-07T13:09:38.353Z,96473.13
2022-10-07T13:12:06.696Z,96468.81
2022-10-07T13:14:19.007Z,96465.09
2022-10-07T13:16:31.751Z,96472.25
2022-10-07T13:18:42.662Z,96413.91
2022-10-07T13:21:13.550Z,96457.19
2022-10-07T13:23:21.978Z,96023.22
2022-10-07T13:25:27.740Z,96463.56
2022-10-07T13:27:32.609Z,96454.88
2022-10-07T13:29:35.607Z,96445.47
2022-10-07T13:31:38.364Z,96447.25
2022-10-07T13:33:43.078Z,96433.28
2022-10-07T13:35:45.960Z,96442.13
2022-10-07T13:37:48.857Z,96431.38
2022-10-07T13:39:51.597Z,96352.84
2022-10-07T13:41:57.893Z,96428.78
2022-10-07T13:44:03.621Z,96422.72
2022-10-07T13:46:09.757Z,96278.84
2022-10-07T13:48:24.820Z,96420.00
2022-10-07T13:50:30.765Z,96420.78
2022-10-07T13:52:37.159Z,96414.72
2022-10-07T13:54:40.231Z,96421.25
2022-10-07T13:56:43.805Z,96423.31
2022-10-07T13:58:47.248Z,96416.81
2022-10-07T14:00:50.121Z,96416.44
2022-10-07T14:02:53.184Z,96412.06
2022-10-07T14:05:00.895Z,96414.97
2022-10-07T14:07:17.855Z,96348.91
2022-10-07T14:09:24.732Z,96346.81
2022-10-07T14:11:27.439Z,96247.69
2022-10-07T14:13:31.502Z,96398.53
2022-10-07T14:15:40.101Z,96394.63
2022-10-07T14:17:47.624Z,96364.00
2022-10-07T14:19:56.245Z,96277.72
2022-10-07T14:22:00.505Z,96391.34
2022-10-07T14:24:11.507Z,96379.25
2022-10-07T14:26:16.491Z,96161.53
2022-10-07T14:28:20.195Z,96366.28
2022-10-07T14:30:56.331Z,96371.66
2022-10-07T14:33:32.499Z,96376.22
2022-10-07T14:35:37.076Z,96372.88
2022-10-07T14:37:39.771Z,96374.75
2022-10-07T14:39:47.633Z,96363.28
2022-10-07T14:41:50.899Z,96355.25
2022-10-07T14:43:53.800Z,96362.44
2022-10-07T14:45:56.621Z,96350.41
2022-10-07T14:47:59.370Z,96355.59
2022-10-07T14:50:02.192Z,96356.56
2022-10-07T14:52:06.100Z,96356.84
2022-10-07T14:54:09.123Z,96352.00
2022-10-07T14:56:16.139Z,96345.25
2022-10-07T14:58:18.869Z,96348.47
2022-10-07T15:00:23.703Z,96344.09
2022-10-07T15:02:26.445Z,96348.94
2022-10-07T15:04:29.346Z,96335.56
2022-10-07T15:06:32.204Z,96341.97
2022-10-07T15:08:34.929Z,96338.06
2022-10-07T15:10:37.650Z,96334.16
2022-10-07T15:12:42.958Z,96328.81
2022-10-07T15:14:45.874Z,96330.41
2022-10-07T15:16:50.405Z,96286.66
2022-10-07T15:18:53.971Z,96329.41
2022-10-07T15:20:57.863Z,96272.28
2022-10-07T15:23:02.475Z,95884.84
2022-10-07T15:25:06.047Z,96329.97
2022-10-07T15:27:09.889Z,96311.34
2022-10-07T15:29:15.138Z,96314.28
2022-10-07T15:31:18.649Z,96311.06
2022-10-07T15:33:21.418Z,96247.16
2022-10-07T15:35:24.882Z,96312.56
2022-10-07T15:37:28.237Z,96316.66
2022-10-07T15:39:30.998Z,96297.16
2022-10-07T15:41:36.026Z,96211.31
2022-10-07T15:43:38.945Z,96306.28
2022-10-07T15:45:46.174Z,96298.88
2022-10-07T15:47:51.032Z,96295.34
2022-10-07T15:49:53.905Z,96303.91
2022-10-07T15:51:56.642Z,96286.97
2022-10-07T15:54:00.083Z,96302.50
2022-10-07T15:56:02.889Z,96291.84
2022-10-07T15:58:05.879Z,96294.16
2022-10-07T16:00:09.732Z,96294.63
2022-10-07T16:02:19.138Z,96291.88
2022-10-07T16:04:22.062Z,96290.88
2022-10-07T16:06:27.094Z,96291.00
2022-10-07T16:08:31.102Z,96293.00
2022-10-07T16:10:38.011Z,96089.28
2022-10-07T16:12:40.721Z,96283.78
2022-10-07T16:14:43.500Z,96229.03
2022-10-07T16:16:46.245Z,96273.06
2022-10-07T16:18:52.171Z,96273.81
2022-10-07T16:20:54.967Z,96272.50
2022-10-07T16:22:57.715Z,96277.00
2022-10-07T16:25:00.517Z,96280.00
2022-10-07T16:27:03.302Z,96277.81
2022-10-07T16:29:28.015Z,96279.50
2022-10-07T16:31:31.793Z,96273.38
2022-10-07T16:33:34.537Z,96284.28
2022-10-07T16:35:38.575Z,96285.66
2022-10-07T16:37:41.376Z,96275.13
2022-10-07T16:39:44.059Z,96285.56
2022-10-07T16:41:48.052Z,96281.75
2022-10-07T16:43:50.761Z,96280.94
2022-10-07T16:45:53.495Z,96280.25
2022-10-07T16:47:56.844Z,96288.13
2022-10-07T16:49:59.600Z,96282.03
2022-10-07T16:52:04.374Z,96008.03
2022-10-07T16:54:12.657Z,96327.16
2022-10-07T16:56:16.819Z,96277.69
2022-10-07T16:58:19.570Z,96042.97
2022-10-07T17:00:23.035Z,96130.66
2022-10-07T17:02:25.697Z,96277.75
2022-10-07T17:04:28.342Z,96281.28
2022-10-07T17:06:32.205Z,96227.56
2022-10-07T17:08:40.542Z,96270.63
2022-10-07T17:10:45.559Z,96274.47
2022-10-07T17:12:48.236Z,96285.50
2022-10-07T17:14:50.867Z,96280.16
2022-10-07T17:16:56.575Z,96283.41
2022-10-07T17:18:59.512Z,96298.56
2022-10-07T17:21:02.164Z,96281.09
2022-10-07T17:23:04.840Z,96248.56
2022-10-07T17:25:09.474Z,96279.41
2022-10-07T17:27:12.122Z,96133.47
2022-10-07T17:29:18.150Z,96285.66
2022-10-07T17:31:20.952Z,96282.78
2022-10-07T17:33:23.722Z,96291.72
2022-10-07T17:35:28.183Z,96209.56
2022-10-07T17:37:30.864Z,96285.94
2022-10-07T17:39:33.599Z,96287.75
2022-10-07T17:41:38.907Z,96001.19
2022-10-07T17:43:41.881Z,96284.91
2022-10-07T17:45:44.543Z,96289.09
2022-10-07T17:47:47.662Z,96280.53
2022-10-07T17:49:50.673Z,96236.03
2022-10-07T17:51:55.114Z,96286.56
2022-10-07T17:53:59.557Z,96296.91
2022-10-07T17:56:02.648Z,96102.91
2022-10-07T17:58:06.715Z,96259.81
2022-10-07T18:00:10.558Z,96289.56
2022-10-07T18:02:16.181Z,96289.84
2022-10-07T18:04:23.887Z,96280.66
2022-10-07T18:06:28.910Z,96280.41
2022-10-07T18:08:31.685Z,96269.34
2022-10-07T18:10:34.486Z,96280.25
2022-10-07T18:12:54.562Z,96278.09
2022-10-07T18:15:16.270Z,96274.69
2022-10-07T18:17:19.260Z,96278.25
2022-10-07T18:19:22.982Z,96276.34
2022-10-07T18:21:27.654Z,96280.97
2022-10-07T18:23:30.331Z,96285.28
2022-10-07T18:25:34.054Z,96183.94
2022-10-07T18:27:36.747Z,96233.13
2022-10-07T18:29:39.642Z,96010.03
2022-10-07T18:31:43.919Z,96285.31
2022-10-07T18:33:46.643Z,96067.00
2022-10-07T18:35:49.291Z,96017.84
2022-10-07T18:37:52.345Z,96277.47
2022-10-07T18:39:55.065Z,96276.94
2022-10-07T18:41:58.854Z,96265.84
2022-10-07T18:44:01.567Z,96205.34
2022-10-07T18:46:06.451Z,96073.00
2022-10-07T18:48:10.613Z,96272.41
2022-10-07T18:50:13.305Z,96265.97
2022-10-07T18:52:16.075Z,96262.75
2022-10-07T18:54:19.004Z,96257.59
2022-10-07T18:56:23.660Z,96249.78
2022-10-07T18:58:26.397Z,96264.38
2022-10-07T19:00:29.261Z,96262.22
2022-10-07T19:02:32.003Z,96264.38
2022-10-07T19:04:36.054Z,96259.78
2022-10-07T19:06:43.814Z,96183.34
2022-10-07T19:08:47.084Z,96192.78
2022-10-07T19:10:49.834Z,96259.53
2022-10-07T19:13:10.096Z,96261.69
2022-10-07T19:15:12.770Z,96252.50
2022-10-07T19:17:15.482Z,96262.28
2022-10-07T19:19:20.688Z,96260.13
2022-10-07T19:21:25.946Z,96253.91
2022-10-07T19:23:29.384Z,96123.06
2022-10-07T19:25:47.206Z,96264.75
2022-10-07T19:27:49.870Z,96258.81
2022-10-07T19:29:52.601Z,96209.09
2022-10-07T19:31:56.622Z,96259.91
2022-10-07T19:34:02.532Z,96266.69
2022-10-07T19:36:05.956Z,96263.97
2022-10-07T19:38:10.122Z,96262.34
2022-10-07T19:40:12.806Z,96199.91
2022-10-07T19:42:15.471Z,96270.53
2022-10-07T19:44:18.311Z,96207.72
2022-10-07T19:46:22.551Z,96233.75
2022-10-07T19:48:25.739Z,96212.41
2022-10-07T19:50:28.420Z,96264.06
2022-10-07T19:52:31.093Z,96264.59
2022-10-07T19:54:36.237Z,96264.31
2022-10-07T19:56:40.727Z,96110.22
2022-10-07T19:58:51.030Z,96261.88
2022-10-07T20:00:53.809Z,96199.13
2022-10-07T20:02:57.846Z,96163.47
2022-10-07T20:05:00.529Z,96272.47
2022-10-07T20:07:03.251Z,96267.31
2022-10-07T20:09:08.244Z,96268.41
2022-10-07T20:11:13.171Z,96274.34
2022-10-07T20:13:17.551Z,96265.69
2022-10-07T20:15:21.101Z,96165.59
2022-10-07T20:17:24.229Z,96251.59
2022-10-07T20:19:27.188Z,96259.44
2022-10-07T20:21:30.355Z,96260.81
2022-10-07T20:23:34.420Z,96265.94
2022-10-07T20:25:39.051Z,96216.38
2022-10-07T20:27:43.967Z,96261.03
2022-10-07T20:29:58.955Z,96263.47
2022-10-07T20:32:02.349Z,96130.41
2022-10-07T20:34:06.175Z,96201.22
2022-10-07T20:36:10.540Z,96238.59
2022-10-07T20:38:13.211Z,96265.09
2022-10-07T20:40:33.162Z,96145.28
2022-10-07T20:42:35.198Z,96264.56
2022-10-07T20:44:39.880Z,96259.16
2022-10-07T20:46:42.812Z,96196.66
2022-10-07T20:48:45.816Z,96257.25
2022-10-07T20:50:48.628Z,96259.16
2022-10-07T20:52:51.319Z,96258.63
2022-10-07T20:54:54.451Z,96262.41
2022-10-07T20:56:58.924Z,96264.31
2022-10-07T20:59:01.589Z,96030.47
2022-10-07T21:01:09.711Z,96261.06
2022-10-07T21:03:12.549Z,96189.38
2022-10-07T21:05:15.346Z,96204.50
2022-10-07T21:07:19.580Z,96247.81
2022-10-07T21:09:22.347Z,96108.28
2022-10-07T21:11:25.578Z,96134.78
2022-10-07T21:13:28.383Z,96244.53
2022-10-07T21:15:31.301Z,96251.88
2022-10-07T21:17:36.246Z,96247.25
2022-10-07T21:19:39.062Z,96195.34
2022-10-07T21:21:42.084Z,96243.22
2022-10-07T21:23:44.832Z,96110.72
2022-10-07T21:25:48.099Z,96245.13
2022-10-07T21:27:50.834Z,96116.16
2022-10-07T21:29:53.559Z,96244.84
2022-10-07T21:31:56.358Z,96246.75
2022-10-07T21:34:01.607Z,96241.88
2022-10-07T21:36:06.868Z,96168.06
2022-10-07T21:38:09.602Z,96241.31
2022-10-07T21:40:12.291Z,96238.06
2022-10-07T21:42:15.690Z,96235.91
2022-10-07T21:44:18.686Z,96238.34
2022-10-07T21:46:22.247Z,96173.19
2022-10-07T21:48:25.006Z,96117.53
2022-10-07T21:50:29.049Z,96241.88
2022-10-07T21:52:31.827Z,96239.69
2022-10-07T21:54:34.468Z,96245.66
2022-10-07T21:56:37.213Z,96229.41
2022-10-07T21:58:40.148Z,96235.66
2022-10-07T22:00:43.409Z,96228.88
2022-10-07T22:02:46.464Z,96090.19
2022-10-07T22:04:49.330Z,96239.47
2022-10-07T22:07:10.812Z,96234.28
2022-10-07T22:09:15.371Z,96231.84
2022-10-07T22:11:21.937Z,96237.03
2022-10-07T22:13:24.610Z,96127.22
2022-10-07T22:15:27.497Z,96229.47
2022-10-07T22:17:30.508Z,96233.25
2022-10-07T22:19:33.279Z,96232.44
2022-10-07T22:21:39.999Z,96234.88
2022-10-07T22:23:44.757Z,96155.38
2022-10-07T22:25:48.437Z,96230.53
2022-10-07T22:27:51.492Z,96239.47
2022-10-07T22:29:54.308Z,96225.13
2022-10-07T22:31:57.789Z,96224.31
2022-10-07T22:34:01.814Z,96229.16
2022-10-07T22:36:03.833Z,96218.06
2022-10-07T22:38:06.559Z,95851.09
2022-10-07T22:40:11.303Z,96222.41
2022-10-07T22:42:14.075Z,96219.44
2022-10-07T22:44:16.763Z,96149.41
2022-10-07T22:46:26.090Z,96174.31
2022-10-07T22:48:31.315Z,96149.41
2022-10-07T22:50:34.153Z,96217.00
2022-10-07T22:52:37.087Z,96217.00
2022-10-07T22:54:40.278Z,96205.91
2022-10-07T22:56:45.794Z,96204.53
2022-10-07T22:58:53.008Z,96210.50
2022-10-07T23:00:55.707Z,96197.53
2022-10-07T23:02:58.556Z,96209.41
2022-10-07T23:05:01.456Z,96205.91
2022-10-07T23:07:04.200Z,96206.16
2022-10-07T23:09:06.910Z,96200.22
2022-10-07T23:11:11.005Z,96201.03
2022-10-07T23:13:15.137Z,96201.31
2022-10-07T23:15:19.647Z,96200.50
2022-10-07T23:17:22.617Z,96083.97
2022-10-07T23:19:25.429Z,96141.03
2022-10-07T23:21:30.020Z,96211.06
2022-10-07T23:23:36.343Z,96202.94
2022-10-07T23:25:43.131Z,96202.97
2022-10-07T23:27:45.844Z,96141.28
2022-10-07T23:29:49.964Z,96206.19
2022-10-07T23:31:52.682Z,96106.13
2022-10-07T23:33:57.224Z,96208.63
2022-10-07T23:36:00.943Z,96205.66
2022-10-07T23:38:03.638Z,96030.75
2022-10-07T23:40:07.699Z,96172.66
2022-10-07T23:42:10.461Z,96202.94
2022-10-07T23:44:13.169Z,96201.59
2022-10-07T23:46:19.169Z,96191.84
2022-10-07T23:48:22.456Z,96017.22
2022-10-07T23:50:25.203Z,96202.41
2022-10-07T23:52:27.874Z,96198.88
2022-10-07T23:54:30.575Z,96101.53
2022-10-07T23:56:33.878Z,96196.47
2022-10-07T23:58:37.257Z,96192.13
